createdAt,value
2022-12-28T00:02:39.790Z,100.00
2022-12-28T00:07:42.348Z,100.00
2022-12-28T00:12:45.095Z,100.00
2022-12-28T00:17:48.440Z,100.00
2022-12-28T00:22:54.035Z,100.00
2022-12-28T00:27:56.620Z,100.00
2022-12-28T00:32:59.201Z,100.00
2022-12-28T00:38:01.773Z,100.00
2022-12-28T00:43:04.313Z,100.00
2022-12-28T00:48:07.002Z,100.00
2022-12-28T00:53:10.683Z,100.00
2022-12-28T00:58:13.886Z,100.00
2022-12-28T01:03:17.322Z,100.00
2022-12-28T01:08:20.582Z,100.00
2022-12-28T01:13:23.132Z,100.00
2022-12-28T01:18:25.685Z,100.00
2022-12-28T01:23:28.158Z,100.00
2022-12-28T01:28:31.003Z,100.00
2022-12-28T01:33:33.718Z,100.00
2022-12-28T01:38:37.091Z,100.00
2022-12-28T01:43:49.181Z,100.00
2022-12-28T01:49:24.608Z,100.00
2022-12-28T01:54:30.853Z,100.00
2022-12-28T01:59:38.812Z,100.00
2022-12-28T02:04:41.411Z,100.00
2022-12-28T02:09:45.057Z,100.00
2022-12-28T02:15:08.512Z,100.00
2022-12-28T02:20:11.479Z,100.00
2022-12-28T02:25:29.163Z,100.00
2022-12-28T02:30:44.406Z,100.00
2022-12-28T02:36:18.096Z,100.00
2022-12-28T02:41:24.502Z,100.00
2022-12-28T02:46:53.003Z,100.00
2022-12-28T02:51:58.520Z,100.00
2022-12-28T02:57:19.478Z,100.00
2022-12-28T03:02:31.487Z,100.00
2022-12-28T03:08:20.592Z,100.00
2022-12-28T03:13:43.787Z,100.00
2022-12-28T03:19:19.133Z,100.00
2022-12-28T03:24:42.041Z,100.00
2022-12-28T03:30:11.731Z,100.00
2022-12-28T03:35:17.503Z,100.00
2022-12-28T03:40:28.510Z,100.00
2022-12-28T03:45:46.714Z,100.00
2022-12-28T03:50:53.349Z,100.00
2022-12-28T03:56:17.545Z,100.00
2022-12-28T04:01:22.054Z,100.00
2022-12-28T04:06:25.082Z,100.00
2022-12-28T04:11:27.830Z,100.00
2022-12-28T04:16:31.250Z,100.00
2022-12-28T04:21:35.311Z,100.00
2022-12-28T04:26:38.004Z,100.00
2022-12-28T04:31:40.995Z,100.00
2022-12-28T04:36:48.007Z,100.00
2022-12-28T04:41:54.166Z,100.00
2022-12-28T04:46:56.740Z,100.00
2022-12-28T04:51:59.343Z,100.00
2022-12-28T04:57:01.891Z,100.00
2022-12-28T05:02:04.492Z,100.00
2022-12-28T05:07:07.209Z,100.00
2022-12-28T05:12:09.805Z,99.99
2022-12-28T05:17:12.323Z,99.92
2022-12-28T05:22:17.408Z,100.00
2022-12-28T05:27:20.499Z,100.00
2022-12-28T05:32:23.475Z,100.00
2022-12-28T05:37:26.240Z,100.00
2022-12-28T05:42:28.845Z,100.00
2022-12-28T05:47:31.415Z,100.00
2022-12-28T05:52:33.922Z,100.00
2022-12-28T05:57:36.438Z,100.00
2022-12-28T06:02:39.107Z,100.00
2022-12-28T06:07:41.830Z,100.00
2022-12-28T06:12:44.422Z,100.00
2022-12-28T06:17:47.276Z,99.95
2022-12-28T06:22:50.273Z,99.86
2022-12-28T06:27:53.326Z,99.12
2022-12-28T06:32:57.618Z,98.39
2022-12-28T06:38:00.272Z,99.02
2022-12-28T06:43:02.904Z,99.64
2022-12-28T06:48:05.840Z,99.62
2022-12-28T06:53:08.396Z,98.34
2022-12-28T06:58:10.941Z,99.49
2022-12-28T07:03:13.557Z,98.87
2022-12-28T07:08:17.109Z,98.30
2022-12-28T07:13:24.531Z,99.03
2022-12-28T07:18:30.861Z,100.00
2022-12-28T07:23:34.107Z,100.00
2022-12-28T07:28:41.472Z,99.01
2022-12-28T07:33:45.255Z,99.15
2022-12-28T07:38:49.146Z,99.72
2022-12-28T07:43:52.072Z,100.00
2022-12-28T07:48:54.939Z,100.00
2022-12-28T07:53:59.053Z,99.54
2022-12-28T07:59:06.683Z,99.46
2022-12-28T08:04:12.982Z,98.75
2022-12-28T08:09:15.882Z,99.21
2022-12-28T08:14:18.976Z,98.33
2022-12-28T08:19:22.082Z,97.51
2022-12-28T08:24:24.689Z,96.50
2022-12-28T08:29:27.174Z,96.50
2022-12-28T08:34:29.739Z,96.38
2022-12-28T08:39:32.482Z,95.82
2022-12-28T08:44:34.985Z,94.99
2022-12-28T08:49:37.612Z,94.05
2022-12-28T08:54:40.146Z,93.67
2022-12-28T08:59:42.665Z,92.77
2022-12-28T09:04:45.233Z,92.20
2022-12-28T09:09:48.078Z,91.38
2022-12-28T09:14:50.932Z,90.30
2022-12-28T09:19:53.807Z,89.52
2022-12-28T09:24:56.373Z,88.28
2022-12-28T09:29:58.923Z,88.81
2022-12-28T09:35:01.433Z,87.97
2022-12-28T09:40:04.259Z,87.39
2022-12-28T09:45:11.589Z,87.12
2022-12-28T09:50:17.497Z,86.78
2022-12-28T09:55:21.718Z,86.01
2022-12-28T10:00:52.692Z,85.47
2022-12-28T10:05:58.215Z,84.87
2022-12-28T10:11:02.424Z,84.30
2022-12-28T10:16:07.239Z,83.49
2022-12-28T10:21:10.666Z,82.85
2022-12-28T10:26:18.245Z,82.01
2022-12-28T10:31:40.906Z,80.80
2022-12-28T10:36:43.972Z,79.85
2022-12-28T10:41:48.382Z,78.74
2022-12-28T10:46:58.202Z,78.28
2022-12-28T10:52:07.115Z,77.99
2022-12-28T10:57:30.676Z,77.35
2022-12-28T11:02:33.535Z,76.37
2022-12-28T11:07:38.872Z,75.83
2022-12-28T11:12:47.633Z,73.66
2022-12-28T11:18:18.083Z,73.49
2022-12-28T11:23:23.963Z,71.92
2022-12-28T11:28:26.655Z,74.29
2022-12-28T11:33:44.581Z,74.84
2022-12-28T11:38:49.755Z,73.99
2022-12-28T11:44:00.515Z,74.30
2022-12-28T11:49:04.753Z,74.35
2022-12-28T11:54:39.481Z,75.50
2022-12-28T11:59:42.088Z,74.24
2022-12-28T12:04:46.513Z,70.38
2022-12-28T12:10:25.918Z,72.38
2022-12-28T12:15:41.624Z,72.60
2022-12-28T12:21:03.242Z,73.50
2022-12-28T12:26:28.306Z,69.13
2022-12-28T12:31:41.144Z,66.59
2022-12-28T12:36:53.188Z,64.65
2022-12-28T12:42:24.990Z,65.01
2022-12-28T12:48:03.962Z,67.90
2022-12-28T12:53:32.532Z,70.27
2022-12-28T12:59:00.051Z,72.04
2022-12-28T13:04:09.560Z,72.66
2022-12-28T13:09:19.759Z,72.83
2022-12-28T13:14:24.335Z,73.63
2022-12-28T13:19:29.367Z,74.59
2022-12-28T13:24:37.439Z,75.24
2022-12-28T13:29:40.883Z,76.16
2022-12-28T13:34:51.162Z,76.70
2022-12-28T13:40:16.089Z,77.02
2022-12-28T13:45:21.327Z,77.35
2022-12-28T13:50:27.288Z,78.03
2022-12-28T13:55:44.708Z,78.30
2022-12-28T14:00:50.345Z,78.67
2022-12-28T14:05:57.093Z,77.96
2022-12-28T14:11:00.605Z,78.52
2022-12-28T14:16:04.522Z,78.53
2022-12-28T14:21:07.664Z,78.62
2022-12-28T14:26:22.496Z,78.37
2022-12-28T14:31:32.540Z,78.16
2022-12-28T14:36:48.224Z,78.53
2022-12-28T14:41:51.203Z,77.91
2022-12-28T14:46:54.630Z,77.93
2022-12-28T14:52:09.640Z,76.59
2022-12-28T14:57:34.590Z,76.43
2022-12-28T15:02:39.099Z,77.25
2022-12-28T15:07:41.623Z,77.27
2022-12-28T15:12:44.145Z,77.81
2022-12-28T15:17:47.887Z,76.64
2022-12-28T15:22:51.229Z,76.43
2022-12-28T15:27:53.933Z,76.76
2022-12-28T15:32:56.543Z,76.33
2022-12-28T15:37:59.229Z,75.99
2022-12-28T15:43:01.684Z,76.02
2022-12-28T15:48:05.167Z,76.41
2022-12-28T15:53:07.622Z,76.45
2022-12-28T15:58:10.286Z,76.29
2022-12-28T16:03:12.862Z,76.43
2022-12-28T16:08:15.395Z,76.02
2022-12-28T16:13:18.066Z,76.39
2022-12-28T16:18:21.102Z,76.42
2022-12-28T16:23:23.559Z,76.35
2022-12-28T16:28:26.970Z,75.70
2022-12-28T16:33:29.740Z,76.00
2022-12-28T16:38:32.213Z,75.72
2022-12-28T16:43:34.661Z,75.30
2022-12-28T16:48:38.466Z,74.67
2022-12-28T16:53:40.950Z,74.24
2022-12-28T16:58:49.083Z,74.25
2022-12-28T17:03:52.447Z,74.17
2022-12-28T17:08:54.993Z,73.65
2022-12-28T17:14:06.247Z,73.53
2022-12-28T17:19:08.824Z,73.23
2022-12-28T17:24:11.356Z,73.24
2022-12-28T17:29:13.870Z,72.98
2022-12-28T17:34:16.634Z,73.18
2022-12-28T17:39:19.762Z,73.31
2022-12-28T17:44:22.493Z,73.30
2022-12-28T17:49:25.278Z,72.96
2022-12-28T17:54:27.783Z,73.32
2022-12-28T17:59:30.347Z,74.20
2022-12-28T18:04:33.072Z,74.08
2022-12-28T18:09:35.569Z,73.65
2022-12-28T18:14:38.102Z,73.32
2022-12-28T18:19:40.862Z,73.16
2022-12-28T18:24:43.367Z,72.91
2022-12-28T18:29:46.210Z,72.68
2022-12-28T18:34:49.147Z,73.23
2022-12-28T18:39:51.716Z,73.07
2022-12-28T18:44:54.159Z,73.09
2022-12-28T18:49:56.554Z,73.03
2022-12-28T18:54:59.174Z,73.26
2022-12-28T19:00:02.071Z,72.87
2022-12-28T19:05:05.349Z,73.65
2022-12-28T19:10:15.943Z,73.00
2022-12-28T19:15:18.993Z,73.48
2022-12-28T19:20:21.903Z,74.33
2022-12-28T19:25:24.422Z,74.21
2022-12-28T19:30:26.915Z,75.86
2022-12-28T19:35:29.370Z,76.52
2022-12-28T19:40:31.897Z,76.54
2022-12-28T19:45:34.513Z,76.15
2022-12-28T19:50:36.993Z,76.25
2022-12-28T19:55:39.772Z,77.31
2022-12-28T20:00:42.475Z,77.87
2022-12-28T20:05:44.938Z,79.79
2022-12-28T20:10:58.085Z,81.25
2022-12-28T20:16:00.788Z,82.00
2022-12-28T20:21:22.831Z,81.21
2022-12-28T20:26:27.144Z,80.23
2022-12-28T20:31:30.138Z,79.55
2022-12-28T20:36:34.124Z,78.94
2022-12-28T20:41:55.388Z,79.18
2022-12-28T20:46:58.924Z,77.46
2022-12-28T20:52:01.508Z,77.60
2022-12-28T20:57:04.157Z,77.17
2022-12-28T21:02:06.839Z,78.24
2022-12-28T21:07:09.431Z,79.04
2022-12-28T21:12:12.275Z,78.59
2022-12-28T21:17:15.179Z,78.79
2022-12-28T21:22:17.917Z,78.26
2022-12-28T21:27:21.216Z,77.61
2022-12-28T21:32:23.980Z,76.64
2022-12-28T21:37:35.658Z,78.23
2022-12-28T21:42:38.647Z,77.28
2022-12-28T21:47:41.357Z,78.00
2022-12-28T21:52:43.880Z,77.69
2022-12-28T21:57:50.804Z,78.94
2022-12-28T22:03:12.495Z,79.73
2022-12-28T22:08:33.944Z,78.55
2022-12-28T22:13:36.543Z,78.50
2022-12-28T22:19:04.669Z,78.98
2022-12-28T22:24:01.612Z,78.92
2022-12-28T22:29:04.195Z,78.37
2022-12-28T22:34:07.596Z,78.86
2022-12-28T22:39:10.293Z,79.00
2022-12-28T22:44:12.954Z,78.27
2022-12-28T22:49:16.238Z,77.13
2022-12-28T22:54:19.357Z,76.32
2022-12-28T22:59:22.267Z,76.58
2022-12-28T23:04:25.018Z,77.19
2022-12-28T23:09:27.604Z,77.26
2022-12-28T23:14:49.093Z,76.97
2022-12-28T23:20:10.685Z,76.50
2022-12-28T23:25:35.737Z,77.17
2022-12-28T23:30:41.139Z,76.26
2022-12-28T23:35:44.231Z,76.23
2022-12-28T23:41:06.983Z,76.06
2022-12-28T23:46:09.619Z,75.47
2022-12-28T23:51:12.904Z,75.58
2022-12-28T23:56:15.596Z,75.41
